createdAt,value
2018-08-07T00:01:37.637Z,25.50
2018-08-07T00:04:09.417Z,25.60
2018-08-07T00:06:41.958Z,25.70
2018-08-07T00:09:13.940Z,25.80
2018-08-07T00:11:45.637Z,25.90
2018-08-07T00:14:17.198Z,26.00
2018-08-07T00:16:49.418Z,26.00
2018-08-07T00:19:21.918Z,26.00
2018-08-07T00:21:54.019Z,26.00
2018-08-07T00:24:25.900Z,25.90
2018-08-07T00:26:57.239Z,25.90
2018-08-07T00:29:29.818Z,25.80
2018-08-07T00:32:01.378Z,25.80
2018-08-07T00:34:32.938Z,25.80
2018-08-07T00:37:04.598Z,25.80
2018-08-07T00:39:36.038Z,25.80
2018-08-07T00:42:07.658Z,25.80
2018-08-07T00:44:38.818Z,25.70
2018-08-07T00:47:11.037Z,25.60
2018-08-07T00:49:42.178Z,25.60
2018-08-07T00:52:13.977Z,25.50
2018-08-07T00:54:45.277Z,25.50
2018-08-07T00:57:17.517Z,25.60
2018-08-07T00:59:49.258Z,25.70
2018-08-07T01:02:21.598Z,25.70
2018-08-07T01:04:53.457Z,25.80
2018-08-07T01:07:25.279Z,25.80
2018-08-07T01:09:57.300Z,25.80
2018-08-07T01:12:29.237Z,25.80
2018-08-07T01:15:01.198Z,25.80
2018-08-07T01:17:33.137Z,25.90
2018-08-07T01:20:05.799Z,25.90
2018-08-07T01:22:39.097Z,26.00
2018-08-07T01:25:12.377Z,26.00
2018-08-07T01:27:44.257Z,25.90
2018-08-07T01:30:18.697Z,25.90
2018-08-07T01:32:50.780Z,25.90
2018-08-07T01:35:22.598Z,25.80
2018-08-07T01:37:54.377Z,25.80
2018-08-07T01:40:26.838Z,25.70
2018-08-07T01:42:58.798Z,25.70
2018-08-07T01:45:30.617Z,25.80
2018-08-07T01:48:01.818Z,25.80
2018-08-07T01:50:33.118Z,25.80
2018-08-07T01:53:05.437Z,25.80
2018-08-07T01:55:37.738Z,25.80
2018-08-07T01:58:10.019Z,25.80
2018-08-07T02:00:42.658Z,25.80
2018-08-07T02:03:13.898Z,25.80
2018-08-07T02:05:46.282Z,25.70
2018-08-07T02:08:18.377Z,25.70
2018-08-07T02:10:50.119Z,25.70
2018-08-07T02:13:22.178Z,25.70
2018-08-07T02:15:54.377Z,25.70
2018-08-07T02:18:26.398Z,25.70
2018-08-07T02:20:58.058Z,25.70
2018-08-07T02:23:30.457Z,25.70
2018-08-07T02:26:01.798Z,25.70
2018-08-07T02:28:33.697Z,25.70
2018-08-07T02:31:04.958Z,25.80
2018-08-07T02:33:37.119Z,25.80
2018-08-07T02:36:08.563Z,25.80
2018-08-07T02:38:40.278Z,25.80
2018-08-07T02:41:12.278Z,25.70
2018-08-07T02:43:44.941Z,25.70
2018-08-07T02:46:16.457Z,25.70
2018-08-07T02:48:48.278Z,25.70
2018-08-07T02:51:19.678Z,25.70
2018-08-07T02:53:52.459Z,25.80
2018-08-07T02:56:23.717Z,25.80
2018-08-07T02:58:55.277Z,25.90
2018-08-07T03:01:27.078Z,26.00
2018-08-07T03:03:59.000Z,26.00
2018-08-07T03:06:30.818Z,26.00
2018-08-07T03:09:02.777Z,26.00
2018-08-07T03:11:34.598Z,26.00
2018-08-07T03:14:07.518Z,26.00
2018-08-07T03:16:39.419Z,26.00
2018-08-07T03:19:11.018Z,26.00
2018-08-07T03:21:42.678Z,26.10
2018-08-07T03:24:14.581Z,26.10
2018-08-07T03:26:46.459Z,26.10
2018-08-07T03:29:18.397Z,26.00
2018-08-07T03:31:50.317Z,26.10
2018-08-07T03:34:22.238Z,26.10
2018-08-07T03:36:54.468Z,26.00
2018-08-07T03:39:25.927Z,26.00
2018-08-07T03:41:58.167Z,26.00
2018-08-07T03:44:29.908Z,26.10
2018-08-07T03:47:01.155Z,26.10
2018-08-07T03:49:33.148Z,26.10
2018-08-07T03:52:05.307Z,26.10
2018-08-07T03:54:36.968Z,26.20
2018-08-07T03:57:09.848Z,26.10
2018-08-07T03:59:42.528Z,26.10
2018-08-07T04:02:14.308Z,26.10
2018-08-07T04:04:45.648Z,26.20
2018-08-07T04:07:22.072Z,26.20
2018-08-07T04:09:53.888Z,26.30
2018-08-07T04:12:25.808Z,26.30
2018-08-07T04:14:58.068Z,26.30
2018-08-07T04:17:30.268Z,26.20
2018-08-07T04:20:02.068Z,26.30
2018-08-07T04:22:34.209Z,26.30
2018-08-07T04:25:05.367Z,26.40
2018-08-07T04:27:37.068Z,26.30
2018-08-07T04:30:12.247Z,26.30
2018-08-07T04:32:45.527Z,26.30
2018-08-07T04:35:17.909Z,26.30
2018-08-07T04:37:49.908Z,26.30
2018-08-07T04:40:21.467Z,26.30
2018-08-07T04:42:53.607Z,26.30
2018-08-07T04:45:24.829Z,26.30
2018-08-07T04:47:57.087Z,26.30
2018-08-07T04:50:28.308Z,26.30
2018-08-07T04:53:00.467Z,26.30
2018-08-07T04:55:31.667Z,26.20
2018-08-07T04:58:04.007Z,26.20
2018-08-07T05:00:35.627Z,26.20
2018-08-07T05:03:07.467Z,26.20
2018-08-07T05:05:38.707Z,26.20
2018-08-07T05:08:10.608Z,26.20
2018-08-07T05:10:42.016Z,26.20
2018-08-07T05:13:13.969Z,26.30
2018-08-07T05:15:45.749Z,26.30
2018-08-07T05:18:16.647Z,26.30
2018-08-07T05:20:49.207Z,26.30
2018-08-07T05:23:20.947Z,26.30
2018-08-07T05:25:52.948Z,26.30
2018-08-07T05:28:24.867Z,26.30
2018-08-07T05:30:56.967Z,26.40
2018-08-07T05:33:28.427Z,26.40
2018-08-07T05:36:00.418Z,26.40
2018-08-07T05:38:32.247Z,26.40
2018-08-07T05:41:03.448Z,26.40
2018-08-07T05:43:35.389Z,26.40
2018-08-07T05:46:08.247Z,26.40
2018-08-07T05:48:40.148Z,26.50
2018-08-07T05:51:11.628Z,26.50
2018-08-07T05:53:43.187Z,26.50
2018-08-07T05:58:46.769Z,26.60
2018-08-07T06:01:19.128Z,26.60
2018-08-07T06:03:51.527Z,26.70
2018-08-07T06:06:24.051Z,26.70
2018-08-07T06:08:55.568Z,26.70
2018-08-07T06:11:27.448Z,26.70
2018-08-07T06:13:58.908Z,26.70
2018-08-07T06:16:30.488Z,26.70
2018-08-07T06:19:02.764Z,26.80
2018-08-07T06:21:34.828Z,26.70
2018-08-07T06:24:07.188Z,26.70
2018-08-07T06:26:39.755Z,26.70
2018-08-07T06:29:11.147Z,26.70
2018-08-07T06:31:43.362Z,26.70
2018-08-07T06:34:15.288Z,26.80
2018-08-07T06:36:47.828Z,26.80
2018-08-07T06:39:19.189Z,26.80
2018-08-07T06:41:51.468Z,26.90
2018-08-07T06:44:23.548Z,26.90
2018-08-07T06:46:55.364Z,27.10
2018-08-07T06:49:27.422Z,27.10
2018-08-07T06:51:59.422Z,27.20
2018-08-07T06:54:31.462Z,27.10
2018-08-07T06:57:03.372Z,27.10
2018-08-07T06:59:35.425Z,27.10
2018-08-07T07:02:07.679Z,27.10
2018-08-07T07:04:39.185Z,27.20
2018-08-07T07:07:10.892Z,27.20
2018-08-07T07:09:43.447Z,27.20
2018-08-07T07:12:14.055Z,27.20
2018-08-07T07:14:46.742Z,27.20
2018-08-07T07:17:18.096Z,27.30
2018-08-07T07:19:50.784Z,27.30
2018-08-07T07:22:22.707Z,27.30
2018-08-07T07:24:54.771Z,27.30
2018-08-07T07:27:26.214Z,27.30
2018-08-07T07:29:58.412Z,27.30
2018-08-07T07:32:30.930Z,27.30
2018-08-07T07:35:03.540Z,27.40
2018-08-07T07:37:34.823Z,27.40
2018-08-07T07:40:07.702Z,27.50
2018-08-07T07:42:40.640Z,27.50
2018-08-07T07:45:14.320Z,27.50
2018-08-07T07:47:46.002Z,27.50
2018-08-07T07:50:20.201Z,27.50
2018-08-07T07:52:51.521Z,27.60
2018-08-07T07:55:23.499Z,27.60
2018-08-07T07:57:56.160Z,27.50
2018-08-07T08:00:29.139Z,27.60
2018-08-07T08:03:01.629Z,27.60
2018-08-07T08:05:33.171Z,27.70
2018-08-07T08:08:05.100Z,27.80
2018-08-07T08:10:37.799Z,27.80
2018-08-07T08:13:09.501Z,27.80
2018-08-07T08:15:42.143Z,27.90
2018-08-07T08:18:13.916Z,28.00
2018-08-07T08:20:46.716Z,28.10
2018-08-07T08:23:18.558Z,28.10
2018-08-07T08:25:50.516Z,28.00
2018-08-07T08:28:22.078Z,28.10
2018-08-07T08:30:54.117Z,28.10
2018-08-07T08:33:25.657Z,28.10
2018-08-07T08:35:57.656Z,28.30
2018-08-07T08:38:29.458Z,28.30
2018-08-07T08:41:02.129Z,28.40
2018-08-07T08:43:35.516Z,28.50
2018-08-07T08:46:07.837Z,28.60
2018-08-07T08:48:40.191Z,28.70
2018-08-07T08:51:12.617Z,28.90
2018-08-07T08:56:15.516Z,28.80
2018-08-07T08:58:47.856Z,28.90
2018-08-07T09:01:19.577Z,28.90
2018-08-07T09:03:51.836Z,28.90
2018-08-07T09:06:23.536Z,28.90
2018-08-07T09:08:55.256Z,29.00
2018-08-07T09:11:26.766Z,29.00
2018-08-07T09:13:58.878Z,29.10
2018-08-07T09:16:31.083Z,29.20
2018-08-07T09:19:03.636Z,29.10
2018-08-07T09:21:35.536Z,29.10
2018-08-07T09:24:07.929Z,29.00
2018-08-07T09:26:39.255Z,29.10
2018-08-07T09:29:11.536Z,29.00
2018-08-07T09:31:43.261Z,28.90
2018-08-07T09:34:16.483Z,28.90
2018-08-07T09:36:48.822Z,29.00
2018-08-07T09:39:21.584Z,28.90
2018-08-07T09:41:53.215Z,28.90
2018-08-07T09:44:26.338Z,28.80
2018-08-07T09:46:59.228Z,28.70
2018-08-07T09:49:30.616Z,28.70
2018-08-07T09:52:03.119Z,28.60
2018-08-07T09:54:37.144Z,28.70
2018-08-07T09:57:08.923Z,28.70
2018-08-07T09:59:41.905Z,28.70
2018-08-07T10:02:22.448Z,28.70
2018-08-07T10:04:54.068Z,28.70
2018-08-07T10:07:26.901Z,28.60
2018-08-07T10:09:59.001Z,28.70
2018-08-07T10:12:30.847Z,28.80
2018-08-07T10:15:03.131Z,28.80
2018-08-07T10:17:35.194Z,28.80
2018-08-07T10:20:07.512Z,28.80
2018-08-07T10:22:42.546Z,28.80
2018-08-07T10:25:16.067Z,28.80
2018-08-07T10:27:48.870Z,28.80
2018-08-07T10:30:26.120Z,28.70
2018-08-07T10:32:59.282Z,28.60
2018-08-07T10:35:31.306Z,28.70
2018-08-07T10:38:03.709Z,28.70
2018-08-07T10:40:37.553Z,28.70
2018-08-07T10:43:10.444Z,28.70
2018-08-07T10:45:42.211Z,28.70
2018-08-07T10:48:13.445Z,28.70
2018-08-07T10:50:45.811Z,28.70
2018-08-07T10:53:17.061Z,28.70
2018-08-07T10:55:49.239Z,28.70
2018-08-07T10:58:25.359Z,28.80
2018-08-07T11:00:58.278Z,28.70
2018-08-07T11:03:30.198Z,28.70
2018-08-07T11:06:02.003Z,28.70
2018-08-07T11:08:34.048Z,28.80
2018-08-07T11:11:06.917Z,28.80
2018-08-07T11:13:38.677Z,28.80
2018-08-07T11:16:10.915Z,28.70
2018-08-07T11:18:43.808Z,28.60
2018-08-07T11:21:15.987Z,28.50
2018-08-07T11:23:48.241Z,28.50
2018-08-07T11:26:20.064Z,28.50
2018-08-07T11:28:51.582Z,28.50
2018-08-07T11:31:23.390Z,28.40
2018-08-07T11:33:55.842Z,28.50
2018-08-07T11:36:27.802Z,28.60
2018-08-07T11:38:59.838Z,28.70
2018-08-07T11:41:32.030Z,28.90
2018-08-07T11:44:03.868Z,28.90
2018-08-07T11:46:35.673Z,28.90
2018-08-07T11:49:07.469Z,28.90
2018-08-07T11:51:38.812Z,29.10
2018-08-07T11:54:11.241Z,29.30
2018-08-07T11:56:43.063Z,29.50
2018-08-07T11:59:16.967Z,29.80
2018-08-07T12:01:49.273Z,30.10
2018-08-07T12:04:20.720Z,30.40
2018-08-07T12:06:53.197Z,30.50
2018-08-07T12:09:24.748Z,30.60
2018-08-07T12:11:56.916Z,30.70
2018-08-07T12:14:28.306Z,31.00
2018-08-07T12:17:00.800Z,31.40
2018-08-07T12:19:32.903Z,31.80
2018-08-07T12:22:05.841Z,32.10
2018-08-07T12:24:40.450Z,32.30
2018-08-07T12:27:12.480Z,32.50
2018-08-07T12:29:44.419Z,32.40
2018-08-07T12:32:16.153Z,32.60
2018-08-07T12:34:47.432Z,32.50
2018-08-07T12:37:19.256Z,32.30
2018-08-07T12:39:51.249Z,32.10
2018-08-07T12:42:23.890Z,32.10
2018-08-07T12:44:55.888Z,32.10
2018-08-07T12:47:27.835Z,32.00
2018-08-07T12:49:59.748Z,32.00
2018-08-07T12:52:31.711Z,32.10
2018-08-07T12:55:04.649Z,32.10
2018-08-07T12:57:36.208Z,32.10
2018-08-07T13:00:20.511Z,32.10
2018-08-07T13:02:52.630Z,32.10
2018-08-07T13:05:24.812Z,32.30
2018-08-07T13:07:56.309Z,32.30
2018-08-07T13:10:28.928Z,32.20
2018-08-07T13:13:00.370Z,32.10
2018-08-07T13:15:33.296Z,32.10
2018-08-07T13:18:05.770Z,32.10
2018-08-07T13:20:37.411Z,32.00
2018-08-07T13:23:08.914Z,31.90
2018-08-07T13:25:41.207Z,31.80
2018-08-07T13:28:13.771Z,31.80
2018-08-07T13:30:45.290Z,31.80
2018-08-07T13:33:18.190Z,31.70
2018-08-07T13:35:50.197Z,31.80
2018-08-07T13:38:22.775Z,31.80
2018-08-07T13:40:54.751Z,31.80
2018-08-07T13:43:26.671Z,31.70
2018-08-07T13:45:58.692Z,31.80
2018-08-07T13:48:30.491Z,31.80
2018-08-07T13:51:02.316Z,31.80
2018-08-07T13:53:35.156Z,31.80
2018-08-07T13:56:06.776Z,31.80
2018-08-07T13:58:38.823Z,31.80
2018-08-07T14:01:11.014Z,31.80
2018-08-07T14:03:43.263Z,31.80
2018-08-07T14:06:15.255Z,31.80
2018-08-07T14:08:47.454Z,31.70
2018-08-07T14:11:19.654Z,31.70
2018-08-07T14:13:52.154Z,31.70
2018-08-07T14:16:24.875Z,31.80
2018-08-07T14:18:57.654Z,31.80
2018-08-07T14:21:29.174Z,31.80
2018-08-07T14:24:01.135Z,31.90
2018-08-07T14:26:33.196Z,31.90
2018-08-07T14:29:05.576Z,31.90
2018-08-07T14:31:37.553Z,31.90
2018-08-07T14:34:09.335Z,31.90
2018-08-07T14:36:41.051Z,31.90
2018-08-07T14:39:13.397Z,31.90
2018-08-07T14:41:45.933Z,31.90
2018-08-07T14:44:18.294Z,31.90
2018-08-07T14:46:49.761Z,31.90
2018-08-07T14:49:21.662Z,31.90
2018-08-07T14:51:54.061Z,31.80
2018-08-07T14:54:27.022Z,31.80
2018-08-07T14:56:59.061Z,31.80
2018-08-07T14:59:31.202Z,31.90
2018-08-07T15:02:02.505Z,32.00
2018-08-07T15:04:34.558Z,32.10
2018-08-07T15:07:07.142Z,32.10
2018-08-07T15:09:39.184Z,32.10
2018-08-07T15:12:11.029Z,32.20
2018-08-07T15:14:43.732Z,32.20
2018-08-07T15:17:15.895Z,32.30
2018-08-07T15:19:48.154Z,32.30
2018-08-07T15:22:20.644Z,32.30
2018-08-07T15:24:52.426Z,32.30
2018-08-07T15:27:25.282Z,32.20
2018-08-07T15:29:57.090Z,32.10
2018-08-07T15:32:28.912Z,32.10
2018-08-07T15:35:01.132Z,32.10
2018-08-07T15:37:33.067Z,32.10
2018-08-07T15:40:04.908Z,32.10
2018-08-07T15:42:37.307Z,32.10
2018-08-07T15:45:09.687Z,32.00
2018-08-07T15:50:14.947Z,32.00
2018-08-07T15:52:47.481Z,31.90
2018-08-07T15:55:20.588Z,31.90
2018-08-07T15:57:52.788Z,31.90
2018-08-07T16:00:33.548Z,31.80
2018-08-07T16:03:06.027Z,31.80
2018-08-07T16:05:39.307Z,31.80
2018-08-07T16:08:12.047Z,31.80
2018-08-07T16:11:25.867Z,31.80
2018-08-07T16:13:57.967Z,31.80
2018-08-07T16:16:30.607Z,31.80
2018-08-07T16:19:03.089Z,31.80
2018-08-07T16:21:34.867Z,31.80
2018-08-07T16:24:07.207Z,31.80
2018-08-07T16:26:39.167Z,31.80
2018-08-07T16:29:11.367Z,31.80
2018-08-07T16:31:42.868Z,31.70
2018-08-07T16:34:15.227Z,31.70
2018-08-07T16:36:47.246Z,31.70
2018-08-07T16:39:19.087Z,31.50
2018-08-07T16:41:51.288Z,31.50
2018-08-07T16:44:23.187Z,31.50
2018-08-07T16:46:55.366Z,31.50
2018-08-07T16:49:26.969Z,31.40
2018-08-07T16:51:58.646Z,31.40
2018-08-07T16:54:30.247Z,31.30
2018-08-07T16:57:02.822Z,31.30
2018-08-07T16:59:34.406Z,31.20
2018-08-07T17:02:06.647Z,31.10
2018-08-07T17:04:38.267Z,31.00
2018-08-07T17:07:10.529Z,31.00
2018-08-07T17:09:42.230Z,31.00
2018-08-07T17:12:14.388Z,30.90
2018-08-07T17:14:45.906Z,30.90
2018-08-07T17:17:17.867Z,30.90
2018-08-07T17:19:49.709Z,30.90
2018-08-07T17:22:22.247Z,30.80
2018-08-07T17:24:54.067Z,30.80
2018-08-07T17:27:26.487Z,30.70
2018-08-07T17:29:58.807Z,30.60
2018-08-07T17:32:30.487Z,30.60
2018-08-07T17:35:02.510Z,30.60
2018-08-07T17:37:35.027Z,30.60
2018-08-07T17:40:07.190Z,30.50
2018-08-07T17:42:40.107Z,30.40
2018-08-07T17:45:14.227Z,30.40
2018-08-07T17:47:45.947Z,30.40
2018-08-07T17:50:19.347Z,30.40
2018-08-07T17:52:50.928Z,30.40
2018-08-07T17:55:23.167Z,30.40
2018-08-07T17:57:55.427Z,30.30
2018-08-07T18:00:28.070Z,30.30
2018-08-07T18:03:00.528Z,30.20
2018-08-07T18:05:32.306Z,30.20
2018-08-07T18:08:05.567Z,30.20
2018-08-07T18:10:38.588Z,30.10
2018-08-07T18:13:10.888Z,30.00
2018-08-07T18:15:42.188Z,29.90
2018-08-07T18:18:14.408Z,29.90
2018-08-07T18:20:45.788Z,29.80
2018-08-07T18:23:17.768Z,29.80
2018-08-07T18:25:50.088Z,29.80
2018-08-07T18:28:22.075Z,29.80
2018-08-07T18:30:54.101Z,29.80
2018-08-07T18:33:26.107Z,29.80
2018-08-07T18:35:57.747Z,29.80
2018-08-07T18:38:29.547Z,29.80
2018-08-07T18:41:00.947Z,29.70
2018-08-07T18:43:33.088Z,29.70
2018-08-07T18:46:04.588Z,29.60
2018-08-07T18:48:37.488Z,29.50
2018-08-07T18:51:09.408Z,29.50
2018-08-07T18:53:41.447Z,29.40
2018-08-07T18:56:13.686Z,29.40
2018-08-07T18:58:46.047Z,29.40
2018-08-07T19:01:17.291Z,29.40
2018-08-07T19:03:49.267Z,29.30
2018-08-07T19:06:21.307Z,29.20
2018-08-07T19:08:53.047Z,29.20
2018-08-07T19:11:25.746Z,29.10
2018-08-07T19:13:57.887Z,29.10
2018-08-07T19:16:29.908Z,29.10
2018-08-07T19:19:02.687Z,29.20
2018-08-07T19:21:36.081Z,29.10
2018-08-07T19:24:08.186Z,29.10
2018-08-07T19:26:39.188Z,29.00
2018-08-07T19:29:11.246Z,28.90
2018-08-07T19:31:43.966Z,28.80
2018-08-07T19:34:15.486Z,28.70
2018-08-07T19:36:47.087Z,28.60
2018-08-07T19:39:19.088Z,28.60
2018-08-07T19:41:50.726Z,28.60
2018-08-07T19:44:22.788Z,28.50
2018-08-07T19:46:55.346Z,28.40
2018-08-07T19:49:27.288Z,28.30
2018-08-07T19:51:59.329Z,28.30
2018-08-07T19:54:31.509Z,28.30
2018-08-07T19:57:03.106Z,28.20
2018-08-07T19:59:35.830Z,28.10
2018-08-07T20:02:07.206Z,28.10
2018-08-07T20:04:38.746Z,28.00
2018-08-07T20:07:10.568Z,28.00
2018-08-07T20:09:42.288Z,27.90
2018-08-07T20:12:14.247Z,28.00
2018-08-07T20:14:46.247Z,27.90
2018-08-07T20:17:20.820Z,27.80
2018-08-07T20:19:52.848Z,27.90
2018-08-07T20:22:24.647Z,27.90
2018-08-07T20:24:56.748Z,27.90
2018-08-07T20:27:28.467Z,27.80
2018-08-07T20:30:00.168Z,27.70
2018-08-07T20:32:31.927Z,27.70
2018-08-07T20:35:03.967Z,27.70
2018-08-07T20:37:36.453Z,27.60
2018-08-07T20:40:10.987Z,27.60
2018-08-07T20:42:43.027Z,27.60
2018-08-07T20:45:15.391Z,27.70
2018-08-07T20:47:46.767Z,27.60
2018-08-07T20:50:23.187Z,27.50
2018-08-07T20:52:56.470Z,27.50
2018-08-07T20:55:28.168Z,27.50
2018-08-07T20:58:00.607Z,27.40
2018-08-07T21:00:32.388Z,27.40
2018-08-07T21:03:04.528Z,27.40
2018-08-07T21:05:36.688Z,27.30
2018-08-07T21:08:08.714Z,27.30
2018-08-07T21:10:40.567Z,27.30
2018-08-07T21:13:12.666Z,27.20
2018-08-07T21:15:45.110Z,27.20
2018-08-07T21:18:17.787Z,27.10
2018-08-07T21:20:49.806Z,27.10
2018-08-07T21:23:21.866Z,27.10
2018-08-07T21:25:53.427Z,27.10
2018-08-07T21:28:26.031Z,27.10
2018-08-07T21:30:57.426Z,27.00
2018-08-07T21:33:28.646Z,26.90
2018-08-07T21:36:00.267Z,26.80
2018-08-07T21:38:32.007Z,26.70
2018-08-07T21:41:03.906Z,26.80
2018-08-07T21:43:36.346Z,26.80
2018-08-07T21:46:07.826Z,26.70
2018-08-07T21:48:39.807Z,26.60
2018-08-07T21:51:11.727Z,26.70
2018-08-07T21:53:43.726Z,26.70
2018-08-07T21:56:15.826Z,26.70
2018-08-07T21:58:47.567Z,26.60
2018-08-07T22:01:19.807Z,26.60
2018-08-07T22:03:51.243Z,26.60
2018-08-07T22:06:23.426Z,26.60
2018-08-07T22:08:55.687Z,26.50
2018-08-07T22:11:28.247Z,26.50
2018-08-07T22:14:00.407Z,26.50
2018-08-07T22:16:32.333Z,26.50
2018-08-07T22:19:05.007Z,26.50
2018-08-07T22:21:36.407Z,26.50
2018-08-07T22:24:09.587Z,26.40
2018-08-07T22:26:41.167Z,26.40
2018-08-07T22:29:12.647Z,26.40
2018-08-07T22:31:44.608Z,26.40
2018-08-07T22:34:16.567Z,26.40
2018-08-07T22:36:48.767Z,26.40
2018-08-07T22:39:20.687Z,26.40
2018-08-07T22:41:53.107Z,26.30
2018-08-07T22:44:25.687Z,26.20
2018-08-07T22:46:56.807Z,25.70
2018-08-07T22:49:28.627Z,25.70
2018-08-07T22:52:00.807Z,25.70
2018-08-07T22:54:33.647Z,25.80
2018-08-07T22:57:04.847Z,25.80
2018-08-07T22:59:37.250Z,25.80
2018-08-07T23:02:08.787Z,25.80
2018-08-07T23:04:41.107Z,25.70
2018-08-07T23:07:12.728Z,25.60
2018-08-07T23:09:45.588Z,25.60
2018-08-07T23:12:17.627Z,25.50
2018-08-07T23:14:49.107Z,25.50
2018-08-07T23:17:21.286Z,25.50
2018-08-07T23:19:53.126Z,25.50
2018-08-07T23:22:24.967Z,25.40
2018-08-07T23:24:56.787Z,25.40
2018-08-07T23:27:29.432Z,25.30
2018-08-07T23:30:00.667Z,25.20
2018-08-07T23:32:32.166Z,25.30
2018-08-07T23:35:04.007Z,25.20
2018-08-07T23:37:35.546Z,25.20
2018-08-07T23:40:08.747Z,25.20
2018-08-07T23:42:41.587Z,25.10
2018-08-07T23:45:14.407Z,25.20
2018-08-07T23:47:46.587Z,25.20
2018-08-07T23:50:18.288Z,25.20
2018-08-07T23:52:50.827Z,25.20
2018-08-07T23:55:23.447Z,25.20
2018-08-07T23:57:55.027Z,25.20
